createdAt,value
2023-02-11T00:00:23.348Z,24.30
2023-02-11T00:02:50.501Z,27.60
2023-02-11T00:05:17.590Z,24.73
2023-02-11T00:07:44.908Z,21.67
2023-02-11T00:10:11.990Z,26.15
2023-02-11T00:12:39.065Z,28.07
2023-02-11T00:15:08.066Z,24.00
2023-02-11T00:17:35.176Z,25.02
2023-02-11T00:20:02.308Z,25.98
2023-02-11T00:22:29.391Z,25.50
2023-02-11T00:24:57.260Z,27.33
2023-02-11T00:27:24.333Z,27.70
2023-02-11T00:29:51.581Z,25.80
2023-02-11T00:32:18.720Z,26.50
2023-02-11T00:34:45.830Z,27.00
2023-02-11T00:37:13.617Z,27.83
2023-02-11T00:39:40.756Z,25.45
2023-02-11T00:42:08.168Z,27.52
2023-02-11T00:44:35.380Z,25.95
2023-02-11T00:47:02.399Z,28.80
2023-02-11T00:49:29.428Z,27.27
2023-02-11T00:51:56.667Z,23.60
2023-02-11T00:54:23.742Z,26.92
2023-02-11T00:56:50.810Z,25.13
2023-02-11T00:59:17.953Z,27.55
2023-02-11T01:01:45.100Z,26.73
2023-02-11T01:04:12.364Z,24.55
2023-02-11T01:06:39.422Z,28.13
2023-02-11T01:09:06.506Z,23.98
2023-02-11T01:11:33.599Z,26.02
2023-02-11T01:14:00.676Z,25.10
2023-02-11T01:16:27.759Z,26.00
2023-02-11T01:18:54.933Z,25.88
2023-02-11T01:21:22.117Z,25.85
2023-02-11T01:23:49.180Z,27.13
2023-02-11T01:26:17.081Z,23.63
2023-02-11T01:28:44.440Z,16.13
2023-02-11T01:31:11.657Z,26.70
2023-02-11T01:33:38.944Z,23.10
2023-02-11T01:36:07.257Z,23.10
2023-02-11T01:38:35.180Z,26.43
2023-02-11T01:41:07.727Z,26.02
2023-02-11T01:43:46.566Z,22.52
2023-02-11T01:46:35.390Z,24.20
2023-02-11T01:49:11.519Z,27.60
2023-02-11T01:51:58.918Z,23.53
2023-02-11T01:54:49.199Z,18.52
2023-02-11T01:57:23.339Z,24.83
2023-02-11T02:00:11.001Z,25.50
2023-02-11T02:03:02.960Z,22.13
2023-02-11T02:05:42.109Z,23.87
2023-02-11T02:08:21.589Z,28.63
2023-02-11T02:10:53.838Z,25.85
2023-02-11T02:13:21.119Z,26.35
2023-02-11T02:15:59.899Z,26.20
2023-02-11T02:18:37.886Z,21.53
2023-02-11T02:21:22.110Z,24.88
2023-02-11T02:23:58.303Z,26.15
2023-02-11T02:26:44.293Z,24.25
2023-02-11T02:29:40.733Z,22.83
2023-02-11T02:32:38.831Z,23.17
2023-02-11T02:35:25.926Z,24.27
2023-02-11T02:38:28.219Z,27.67
2023-02-11T02:40:59.723Z,26.83
2023-02-11T02:43:27.802Z,24.33
2023-02-11T02:45:55.247Z,24.90
2023-02-11T02:48:31.798Z,25.45
2023-02-11T02:51:15.756Z,25.50
2023-02-11T02:54:00.290Z,27.08
2023-02-11T02:57:12.272Z,22.58
2023-02-11T03:00:02.054Z,25.10
2023-02-11T03:02:45.630Z,21.50
2023-02-11T03:05:21.405Z,20.77
2023-02-11T03:07:57.253Z,20.42
2023-02-11T03:10:34.530Z,25.35
2023-02-11T03:13:02.784Z,22.03
2023-02-11T03:15:32.678Z,22.75
2023-02-11T03:18:01.998Z,23.42
2023-02-11T03:20:30.851Z,20.42
2023-02-11T03:23:08.762Z,20.38
2023-02-11T03:25:46.196Z,19.57
2023-02-11T03:28:21.894Z,23.33
2023-02-11T03:31:14.041Z,21.58
2023-02-11T03:33:54.420Z,21.95
2023-02-11T03:36:32.613Z,28.05
2023-02-11T03:39:00.403Z,27.17
2023-02-11T03:41:27.689Z,21.55
2023-02-11T03:43:57.114Z,23.15
2023-02-11T03:46:29.103Z,28.25
2023-02-11T03:49:01.544Z,19.58
2023-02-11T03:51:29.538Z,29.33
2023-02-11T03:53:58.504Z,22.65
2023-02-11T03:56:28.878Z,21.73
2023-02-11T03:58:56.029Z,24.23
2023-02-11T04:01:23.199Z,24.08
2023-02-11T04:03:50.292Z,23.07
2023-02-11T04:06:17.353Z,21.98
2023-02-11T04:08:44.554Z,23.65
2023-02-11T04:11:11.601Z,23.20
2023-02-11T04:13:38.715Z,27.45
2023-02-11T04:16:05.897Z,23.30
2023-02-11T04:18:33.033Z,20.65
2023-02-11T04:21:00.157Z,24.58
2023-02-11T04:23:27.418Z,16.02
2023-02-11T04:25:54.664Z,24.45
2023-02-11T04:28:21.800Z,24.13
2023-02-11T04:30:51.909Z,19.42
2023-02-11T04:33:19.001Z,20.35
2023-02-11T04:35:46.112Z,25.63
2023-02-11T04:38:13.775Z,23.40
2023-02-11T04:40:40.960Z,23.87
2023-02-11T04:43:08.127Z,25.30
2023-02-11T04:45:35.390Z,24.02
2023-02-11T04:48:03.325Z,20.83
2023-02-11T04:50:30.625Z,22.27
2023-02-11T04:52:57.699Z,24.27
2023-02-11T04:55:24.752Z,23.20
2023-02-11T04:57:51.785Z,25.10
2023-02-11T05:00:19.279Z,26.08
2023-02-11T05:02:46.371Z,23.30
2023-02-11T05:05:13.492Z,24.87
2023-02-11T05:07:41.048Z,24.00
2023-02-11T05:10:08.315Z,23.60
2023-02-11T05:12:35.354Z,21.77
2023-02-11T05:15:02.518Z,22.15
2023-02-11T05:17:29.900Z,25.60
2023-02-11T05:19:56.966Z,22.98
2023-02-11T05:22:24.060Z,25.83
2023-02-11T05:24:51.124Z,22.83
2023-02-11T05:27:18.199Z,23.95
2023-02-11T05:29:45.273Z,21.10
2023-02-11T05:32:12.376Z,24.52
2023-02-11T05:34:39.424Z,25.58
2023-02-11T05:37:06.527Z,23.67
2023-02-11T05:39:33.706Z,26.25
2023-02-11T05:42:00.851Z,22.90
2023-02-11T05:44:27.964Z,26.30
2023-02-11T05:46:55.008Z,22.60
2023-02-11T05:49:22.081Z,22.95
2023-02-11T05:51:49.384Z,21.52
2023-02-11T05:54:17.035Z,23.37
2023-02-11T05:56:45.008Z,23.98
2023-02-11T05:59:14.522Z,20.55
2023-02-11T06:01:41.649Z,24.80
2023-02-11T06:04:09.043Z,27.67
2023-02-11T06:06:36.116Z,26.63
2023-02-11T06:09:03.469Z,23.65
2023-02-11T06:11:30.548Z,24.02
2023-02-11T06:13:57.589Z,23.25
2023-02-11T06:16:24.762Z,19.42
2023-02-11T06:18:51.902Z,25.47
2023-02-11T06:21:19.095Z,22.55
2023-02-11T06:23:46.152Z,23.58
2023-02-11T06:26:21.818Z,28.15
2023-02-11T06:28:49.572Z,26.88
2023-02-11T06:31:17.159Z,27.57
2023-02-11T06:33:44.525Z,26.67
2023-02-11T06:36:15.446Z,25.52
2023-02-11T06:38:42.550Z,22.90
2023-02-11T06:41:11.479Z,23.38
2023-02-11T06:43:38.622Z,24.83
2023-02-11T06:46:05.899Z,22.17
2023-02-11T06:48:33.525Z,22.83
2023-02-11T06:51:05.450Z,24.38
2023-02-11T06:53:35.962Z,25.30
2023-02-11T06:56:07.551Z,24.50
2023-02-11T06:58:35.023Z,24.73
2023-02-11T07:01:10.224Z,21.65
2023-02-11T07:03:39.345Z,30.52
2023-02-11T07:06:12.987Z,24.15
2023-02-11T07:08:40.524Z,23.87
2023-02-11T07:11:12.259Z,26.45
2023-02-11T07:13:39.388Z,25.40
2023-02-11T07:16:12.922Z,25.77
2023-02-11T07:18:40.094Z,26.23
2023-02-11T07:21:08.863Z,27.87
2023-02-11T07:23:36.839Z,36.08
2023-02-11T07:26:12.402Z,21.67
2023-02-11T07:28:40.618Z,22.38
2023-02-11T07:31:15.998Z,23.77
2023-02-11T07:33:46.000Z,24.30
2023-02-11T07:36:14.715Z,28.65
2023-02-11T07:38:42.250Z,28.92
2023-02-11T07:41:11.772Z,26.35
2023-02-11T07:43:39.819Z,25.05
2023-02-11T07:46:09.110Z,25.87
2023-02-11T07:48:36.206Z,24.05
2023-02-11T07:51:26.581Z,27.30
2023-02-11T07:53:55.485Z,28.17
2023-02-11T07:56:23.019Z,30.27
2023-02-11T07:58:50.520Z,27.23
2023-02-11T08:01:25.348Z,33.13
2023-02-11T08:03:53.077Z,25.88
2023-02-11T08:06:21.434Z,29.08
2023-02-11T08:08:49.179Z,25.60
2023-02-11T08:11:18.961Z,33.37
2023-02-11T08:13:46.586Z,25.02
2023-02-11T08:16:28.928Z,28.33
2023-02-11T08:18:57.859Z,29.25
2023-02-11T08:21:25.280Z,28.85
2023-02-11T08:23:52.563Z,30.10
2023-02-11T08:26:26.006Z,24.92
2023-02-11T08:28:54.573Z,27.40
2023-02-11T08:31:26.770Z,24.90
2023-02-11T08:33:55.054Z,28.60
2023-02-11T08:36:23.640Z,29.43
2023-02-11T08:38:50.778Z,31.80
2023-02-11T08:41:18.266Z,27.67
2023-02-11T08:43:47.194Z,28.63
2023-02-11T08:46:17.029Z,30.02
2023-02-11T08:48:45.081Z,29.97
2023-02-11T08:51:20.906Z,31.13
2023-02-11T08:53:48.215Z,28.65
2023-02-11T08:56:16.556Z,31.13
2023-02-11T08:58:43.962Z,27.55
2023-02-11T09:01:17.663Z,32.23
2023-02-11T09:03:44.755Z,27.25
2023-02-11T09:06:13.900Z,26.90
2023-02-11T09:08:45.327Z,24.17
2023-02-11T09:11:13.780Z,27.70
2023-02-11T09:13:42.594Z,27.50
2023-02-11T09:16:17.439Z,32.08
2023-02-11T09:18:45.619Z,30.20
2023-02-11T09:21:13.212Z,31.58
2023-02-11T09:23:43.490Z,30.13
2023-02-11T09:26:15.762Z,35.07
2023-02-11T09:28:42.885Z,28.40
2023-02-11T09:31:12.342Z,20.67
2023-02-11T09:33:42.311Z,30.40
2023-02-11T09:36:09.455Z,31.45
2023-02-11T09:38:36.495Z,33.23
2023-02-11T09:41:07.584Z,31.70
2023-02-11T09:43:44.220Z,35.08
2023-02-11T09:46:15.542Z,30.67
2023-02-11T09:48:44.331Z,30.40
2023-02-11T09:51:33.194Z,35.40
2023-02-11T09:54:05.614Z,30.77
2023-02-11T09:56:33.019Z,33.63
2023-02-11T09:59:00.119Z,29.52
2023-02-11T10:01:53.341Z,35.42
2023-02-11T10:04:39.644Z,33.80
2023-02-11T10:07:21.477Z,24.95
2023-02-11T10:10:17.706Z,25.27
2023-02-11T10:13:03.897Z,33.30
2023-02-11T10:16:05.376Z,30.67
2023-02-11T10:18:38.724Z,32.37
2023-02-11T10:21:18.024Z,29.27
2023-02-11T10:23:48.158Z,30.55
2023-02-11T10:26:17.371Z,29.02
2023-02-11T10:28:46.652Z,28.42
2023-02-11T10:31:22.621Z,28.63
2023-02-11T10:34:04.047Z,24.55
2023-02-11T10:36:34.797Z,29.73
2023-02-11T10:39:12.213Z,31.08
2023-02-11T10:41:44.457Z,28.30
2023-02-11T10:44:32.937Z,34.70
2023-02-11T10:47:09.880Z,34.90
2023-02-11T10:49:45.041Z,26.55
2023-02-11T10:52:24.254Z,30.63
2023-02-11T10:55:14.790Z,13.32
2023-02-11T10:57:49.725Z,30.03
2023-02-11T11:00:29.592Z,30.90
2023-02-11T11:02:59.015Z,29.10
2023-02-11T11:05:47.530Z,31.52
2023-02-11T11:08:15.847Z,28.02
2023-02-11T11:10:48.856Z,27.57
2023-02-11T11:13:26.439Z,27.08
2023-02-11T11:16:18.707Z,31.15
2023-02-11T11:18:48.246Z,28.85
2023-02-11T11:21:23.385Z,28.23
2023-02-11T11:23:54.070Z,28.07
2023-02-11T11:26:21.612Z,28.75
2023-02-11T11:29:10.546Z,25.35
2023-02-11T11:31:55.279Z,24.98
2023-02-11T11:34:30.964Z,29.75
2023-02-11T11:37:00.042Z,29.37
2023-02-11T11:39:31.677Z,30.95
2023-02-11T11:42:00.632Z,23.83
2023-02-11T11:44:29.265Z,31.27
2023-02-11T11:47:11.471Z,28.65
2023-02-11T11:49:49.554Z,27.07
2023-02-11T11:52:36.495Z,25.10
2023-02-11T11:55:25.652Z,28.73
2023-02-11T11:57:53.061Z,24.63
2023-02-11T12:00:24.153Z,29.98
2023-02-11T12:03:13.072Z,28.70
2023-02-11T12:06:07.524Z,25.60
2023-02-11T12:08:46.495Z,27.63
2023-02-11T12:11:16.516Z,29.30
2023-02-11T12:13:59.363Z,30.60
2023-02-11T12:16:54.952Z,28.80
2023-02-11T12:19:52.943Z,27.33
2023-02-11T12:22:44.399Z,24.95
2023-02-11T12:25:25.443Z,29.38
2023-02-11T12:28:23.657Z,29.88
2023-02-11T12:31:03.358Z,23.53
2023-02-11T12:33:58.328Z,25.92
2023-02-11T12:36:47.421Z,25.25
2023-02-11T12:39:26.214Z,31.20
2023-02-11T12:42:35.814Z,23.80
2023-02-11T12:45:11.620Z,25.57
2023-02-11T12:48:15.384Z,25.83
2023-02-11T12:50:45.641Z,25.02
2023-02-11T12:53:25.800Z,27.33
2023-02-11T12:55:58.472Z,29.30
2023-02-11T12:58:39.478Z,24.77
2023-02-11T13:01:33.918Z,30.23
2023-02-11T13:04:17.148Z,25.02
2023-02-11T13:06:47.771Z,27.13
2023-02-11T13:09:28.374Z,24.85
2023-02-11T13:11:58.038Z,27.30
2023-02-11T13:14:35.495Z,28.88
2023-02-11T13:17:06.784Z,22.60
2023-02-11T13:19:42.683Z,28.95
2023-02-11T13:22:18.884Z,27.20
2023-02-11T13:25:06.157Z,26.03
2023-02-11T13:27:51.635Z,28.52
2023-02-11T13:30:30.334Z,26.92
2023-02-11T13:32:57.387Z,26.63
2023-02-11T13:35:37.483Z,25.38
2023-02-11T13:38:21.622Z,24.07
2023-02-11T13:41:02.007Z,24.67
2023-02-11T13:43:30.104Z,23.13
2023-02-11T13:45:59.296Z,25.05
2023-02-11T13:48:31.974Z,24.45
2023-02-11T13:51:01.150Z,29.27
2023-02-11T13:53:28.740Z,25.27
2023-02-11T13:56:12.162Z,28.05
2023-02-11T13:58:50.054Z,24.80
2023-02-11T14:02:12.467Z,28.27
2023-02-11T14:05:21.099Z,24.77
2023-02-11T14:08:28.409Z,27.23
2023-02-11T14:11:00.138Z,26.80
2023-02-11T14:13:32.004Z,23.23
2023-02-11T14:16:20.498Z,26.38
2023-02-11T14:18:55.353Z,26.33
2023-02-11T14:21:32.311Z,23.80
2023-02-11T14:24:19.243Z,25.27
2023-02-11T14:26:58.966Z,22.17
2023-02-11T14:29:51.095Z,26.27
2023-02-11T14:32:56.173Z,24.20
2023-02-11T14:35:37.278Z,21.52
2023-02-11T14:38:22.447Z,23.77
2023-02-11T14:41:04.525Z,25.73
2023-02-11T14:43:36.373Z,28.65
2023-02-11T14:46:03.596Z,26.77
2023-02-11T14:48:36.560Z,21.08
2023-02-11T14:51:10.613Z,22.58
2023-02-11T14:53:38.144Z,23.42
2023-02-11T14:56:21.635Z,24.92
2023-02-11T14:58:51.649Z,20.57
2023-02-11T15:01:29.471Z,30.50
2023-02-11T15:03:56.998Z,27.92
2023-02-11T15:06:39.524Z,24.95
2023-02-11T15:09:30.666Z,24.83
2023-02-11T15:11:58.225Z,21.97
2023-02-11T15:14:29.067Z,21.58
2023-02-11T15:17:01.457Z,24.77
2023-02-11T15:19:34.269Z,23.90
2023-02-11T15:22:04.927Z,24.50
2023-02-11T15:24:35.034Z,21.73
2023-02-11T15:27:18.449Z,26.13
2023-02-11T15:29:51.346Z,22.33
2023-02-11T15:32:21.699Z,21.25
2023-02-11T15:34:50.645Z,20.48
2023-02-11T15:37:22.200Z,33.53
2023-02-11T15:39:51.001Z,28.27
2023-02-11T15:42:34.077Z,25.02
2023-02-11T15:45:11.760Z,22.83
2023-02-11T15:47:40.151Z,22.20
2023-02-11T15:50:07.990Z,28.87
2023-02-11T15:52:35.673Z,26.88
2023-02-11T15:55:02.873Z,22.63
2023-02-11T15:57:30.207Z,19.00
2023-02-11T15:59:58.724Z,24.27
2023-02-11T16:02:33.336Z,20.77
2023-02-11T16:05:03.788Z,21.90
2023-02-11T16:07:52.421Z,22.70
2023-02-11T16:10:24.046Z,22.27
2023-02-11T16:12:53.123Z,19.25
2023-02-11T16:15:38.226Z,19.50
2023-02-11T16:18:15.175Z,22.90
2023-02-11T16:20:47.282Z,23.83
2023-02-11T16:23:23.558Z,26.38
2023-02-11T16:25:59.662Z,24.27
2023-02-11T16:28:27.471Z,27.80
2023-02-11T16:30:55.505Z,23.05
2023-02-11T16:33:22.652Z,20.67
2023-02-11T16:35:49.908Z,23.70
2023-02-11T16:38:18.585Z,27.17
2023-02-11T16:40:49.167Z,21.80
2023-02-11T16:43:19.222Z,21.70
2023-02-11T16:45:47.016Z,22.83
2023-02-11T16:48:18.030Z,26.02
2023-02-11T16:50:48.617Z,23.33
2023-02-11T16:53:20.111Z,24.20
2023-02-11T16:55:47.198Z,23.25
2023-02-11T16:58:14.366Z,21.83
2023-02-11T17:00:41.781Z,22.83
2023-02-11T17:03:09.171Z,24.40
2023-02-11T17:05:53.090Z,23.93
2023-02-11T17:08:21.944Z,28.92
2023-02-11T17:10:49.474Z,25.75
2023-02-11T17:13:16.844Z,26.77
2023-02-11T17:15:44.005Z,28.73
2023-02-11T17:18:13.731Z,25.80
2023-02-11T17:20:41.206Z,25.20
2023-02-11T17:23:08.277Z,27.98
2023-02-11T17:25:37.384Z,28.55
2023-02-11T17:28:09.201Z,28.00
2023-02-11T17:30:36.377Z,27.80
2023-02-11T17:33:03.410Z,22.30
2023-02-11T17:35:30.653Z,26.20
2023-02-11T17:37:58.677Z,26.65
2023-02-11T17:40:26.409Z,24.95
2023-02-11T17:42:53.488Z,26.10
2023-02-11T17:45:22.422Z,27.88
2023-02-11T17:47:50.218Z,21.70
2023-02-11T17:50:17.316Z,31.08
2023-02-11T17:52:44.366Z,23.83
2023-02-11T17:55:11.564Z,24.43
2023-02-11T17:57:38.761Z,26.42
2023-02-11T18:00:09.355Z,29.65
2023-02-11T18:02:36.648Z,30.33
2023-02-11T18:05:04.282Z,29.67
2023-02-11T18:07:31.344Z,26.27
2023-02-11T18:09:58.536Z,26.33
2023-02-11T18:12:26.141Z,31.38
2023-02-11T18:14:57.479Z,19.73
2023-02-11T18:17:25.420Z,23.48
2023-02-11T18:19:56.683Z,27.97
2023-02-11T18:22:24.598Z,27.20
2023-02-11T18:24:53.352Z,24.17
2023-02-11T18:27:23.447Z,27.27
2023-02-11T18:29:50.594Z,25.60
2023-02-11T18:32:17.635Z,28.80
2023-02-11T18:34:44.717Z,27.55
2023-02-11T18:37:13.369Z,32.25
2023-02-11T18:39:40.976Z,30.05
2023-02-11T18:42:08.931Z,28.67
2023-02-11T18:44:36.801Z,26.87
2023-02-11T18:47:04.220Z,28.63
2023-02-11T18:49:32.925Z,28.33
2023-02-11T18:52:00.030Z,26.67
2023-02-11T18:54:27.148Z,29.35
2023-02-11T18:56:54.248Z,24.47
2023-02-11T18:59:21.345Z,25.60
2023-02-11T19:01:48.451Z,27.00
2023-02-11T19:04:19.770Z,30.75
2023-02-11T19:06:48.708Z,24.27
2023-02-11T19:09:18.395Z,26.90
2023-02-11T19:11:49.899Z,26.35
2023-02-11T19:14:20.039Z,24.65
2023-02-11T19:16:50.088Z,25.48
2023-02-11T19:19:17.667Z,22.38
2023-02-11T19:21:45.822Z,25.87
2023-02-11T19:24:16.069Z,26.35
2023-02-11T19:26:43.292Z,26.02
2023-02-11T19:29:10.538Z,23.05
2023-02-11T19:31:38.255Z,23.40
2023-02-11T19:34:07.442Z,21.87
2023-02-11T19:36:34.619Z,25.58
2023-02-11T19:39:02.893Z,19.80
2023-02-11T19:41:31.528Z,21.08
2023-02-11T19:43:58.578Z,21.80
2023-02-11T19:46:27.673Z,18.93
2023-02-11T19:48:55.084Z,18.58
2023-02-11T19:51:22.636Z,21.17
2023-02-11T19:53:50.984Z,17.35
2023-02-11T19:56:20.749Z,21.10
2023-02-11T19:58:48.025Z,17.50
2023-02-11T20:01:18.376Z,19.00
2023-02-11T20:03:49.842Z,16.02
2023-02-11T20:06:26.044Z,16.92
2023-02-11T20:08:57.198Z,18.58
2023-02-11T20:11:25.724Z,15.93
2023-02-11T20:13:52.821Z,17.15
2023-02-11T20:16:21.689Z,16.50
2023-02-11T20:18:49.742Z,15.70
2023-02-11T20:21:24.868Z,17.05
2023-02-11T20:23:52.618Z,19.17
2023-02-11T20:26:24.855Z,12.30
2023-02-11T20:28:52.996Z,17.63
2023-02-11T20:31:20.388Z,14.70
2023-02-11T20:33:47.899Z,15.15
2023-02-11T20:36:17.882Z,17.13
2023-02-11T20:38:45.165Z,15.98
2023-02-11T20:41:16.104Z,18.65
2023-02-11T20:43:46.035Z,16.10
2023-02-11T20:46:15.352Z,17.38
2023-02-11T20:48:43.057Z,14.10
2023-02-11T20:51:15.946Z,18.15
2023-02-11T20:53:44.755Z,15.35
2023-02-11T20:56:12.419Z,15.27
2023-02-11T20:58:39.650Z,18.05
2023-02-11T21:01:16.820Z,16.83
2023-02-11T21:03:46.685Z,17.45
2023-02-11T21:06:13.759Z,18.67
2023-02-11T21:08:40.822Z,14.73
2023-02-11T21:11:09.320Z,18.27
2023-02-11T21:13:37.724Z,14.70
2023-02-11T21:16:05.361Z,16.02
2023-02-11T21:18:33.302Z,17.23
2023-02-11T21:21:00.709Z,18.42
2023-02-11T21:23:29.051Z,13.57
2023-02-11T21:25:57.142Z,15.57
2023-02-11T21:28:26.430Z,15.27
2023-02-11T21:30:55.520Z,13.40
2023-02-11T21:33:24.412Z,16.42
2023-02-11T21:35:56.141Z,13.35
2023-02-11T21:38:23.967Z,15.30
2023-02-11T21:40:52.490Z,15.80
2023-02-11T21:43:19.834Z,12.65
2023-02-11T21:45:48.772Z,16.17
2023-02-11T21:48:16.351Z,12.95
2023-02-11T21:50:45.820Z,16.87
2023-02-11T21:53:13.527Z,15.80
2023-02-11T21:55:40.895Z,14.70
2023-02-11T21:58:08.536Z,12.43
2023-02-11T22:00:35.645Z,15.98
2023-02-11T22:03:03.251Z,17.43
2023-02-11T22:05:30.510Z,16.23
2023-02-11T22:07:57.540Z,17.85
2023-02-11T22:10:24.716Z,16.88
2023-02-11T22:12:51.781Z,15.55
2023-02-11T22:15:18.984Z,15.27
2023-02-11T22:17:46.005Z,16.05
2023-02-11T22:20:13.129Z,17.02
2023-02-11T22:22:40.193Z,17.20
2023-02-11T22:25:09.833Z,17.15
2023-02-11T22:27:37.135Z,19.47
2023-02-11T22:30:05.559Z,18.67
2023-02-11T22:32:32.876Z,19.20
2023-02-11T22:35:00.006Z,21.35
2023-02-11T22:37:27.083Z,27.75
2023-02-11T22:39:54.403Z,19.73
2023-02-11T22:42:21.757Z,22.20
2023-02-11T22:44:48.814Z,17.17
2023-02-11T22:47:16.464Z,21.23
2023-02-11T22:49:43.564Z,27.30
2023-02-11T22:52:10.593Z,24.20
2023-02-11T22:54:37.796Z,20.85
2023-02-11T22:57:05.573Z,23.45
2023-02-11T22:59:32.610Z,18.13
2023-02-11T23:02:00.200Z,21.15
2023-02-11T23:04:27.360Z,19.63
2023-02-11T23:06:54.378Z,23.02
2023-02-11T23:09:21.428Z,21.30
2023-02-11T23:11:49.379Z,19.95
2023-02-11T23:14:16.546Z,23.05
2023-02-11T23:16:43.760Z,20.70
2023-02-11T23:19:10.888Z,21.45
2023-02-11T23:21:39.118Z,18.17
2023-02-11T23:24:10.035Z,19.67
2023-02-11T23:26:39.335Z,18.17
2023-02-11T23:29:06.805Z,19.10
2023-02-11T23:31:37.740Z,18.65
2023-02-11T23:34:06.080Z,19.77
2023-02-11T23:36:33.551Z,21.05
2023-02-11T23:39:00.890Z,20.40
2023-02-11T23:41:28.835Z,22.43
2023-02-11T23:43:57.856Z,22.98
2023-02-11T23:46:26.751Z,17.23
2023-02-11T23:48:53.972Z,23.42
2023-02-11T23:51:22.084Z,20.58
2023-02-11T23:53:49.669Z,21.07
2023-02-11T23:56:19.948Z,20.42
2023-02-11T23:58:49.395Z,23.25
